Selma, Oregon
Current Conditions -  °F | °C
As of 8:26 AM on Sunday 23 Nov 2014 (Local Time) from KSXT Reporting Station
Moderate Fog Moderate Fog  
Wind Chill: 28°   Ceiling: 100
Heat Index: 35°   Visibility: 0.5mi
Dew Point: 35°   Wind: 9mph
Humidity: 100%   Direction: 150°SSE
Pressure: 30.35"   Gusts: NA
Location:  42.28°N, 123.62°W
Report Text: KSXT 231626Z AUTO 15008KT 1/2SM FG BKN001 OVC120 02/02 A3035 RMK AO2 T00170017 $
Loading
Personal Weather Stations






























Interactive Weather Map New forecast layout! Learn more

10-Day Weather Forecast

Advertisements
Track Severe Weather on mobile